Data for 07/13/2005

Time Sea-Level Adjusted Pressure Absolute Pressure Temperature Relative Humidity Dew Point   
(mb) (inHg) (mb) (inHg) (C) (F) (%) (C) (F)
00:05 1021 30.15 850 25.1 24 75.3 34 7.2 45
00:10 1020 30.12 850 25.1 24.3 75.7 33 7.1 44.7
00:15 1020 30.12 850 25.1 24.3 75.7 32 6.9 44.4
00:20 1020 30.12 850 25.1 24.3 75.7 33 7 44.7
00:25 1020 30.12 850 25.1 24.2 75.5 33 6.9 44.5
00:30 1020 30.12 850 25.1 24 75.2 33 7.1 44.8
00:35 1020 30.12 850 25.1 23.9 75.1 33 7 44.7
00:40 1020 30.12 850 25.1 24.1 75.3 32 6.5 43.8
00:45 1020 30.12 850 25.1 24.1 75.3 34 7.3 45.2
00:50 1020 30.12 850 25.1 24 75.2 32 6.5 43.6
00:55 1020 30.12 850 25.1 24 75.2 32 6.6 43.8
01:00 1020 30.12 850 25.1 23.7 74.7 33 6.8 44.3
01:05 1020 30.12 850 25.1 23.6 74.5 33 6.5 43.7
01:10 1020 30.12 850 25.1 23.6 74.5 33 6.7 44
01:15 1020 30.12 850 25.1 23.5 74.4 33 6.4 43.5
01:20 1020 30.12 850 25.1 23.5 74.4 32 6.3 43.4
01:25 1020 30.12 850 25.1 23.6 74.4 33 6.6 43.8
01:30 1020 30.12 849 25.07 23.3 74 33 6.5 43.7
01:35 1020 30.12 849 25.07 23.2 73.8 33 6.4 43.5
01:40 1020 30.12 849 25.07 23.2 73.8 33 6.5 43.6
01:45 1020 30.12 849 25.07 23.2 73.7 32 5.9 42.7
01:50 1020 30.12 849 25.07 23.3 73.9 34 6.7 44.1
01:55 1020 30.12 850 25.1 22.8 73.1 34 6.4 43.6
02:00 1020 30.12 850 25.1 22.9 73.1 34 6.5 43.6
02:05 1020 30.12 850 25.1 22.6 72.7 35 6.5 43.7
02:10 1020 30.12 850 25.1 22.4 72.4 35 6.5 43.7
02:15 1020 30.12 850 25.1 22.3 72.2 35 6.4 43.6
02:20 1020 30.12 849 25.07 22.2 71.9 36 6.7 44.1
02:25 1020 30.12 849 25.07 21.9 71.5 37 6.8 44.2
02:30 1020 30.12 849 25.07 21.9 71.4 37 6.8 44.3
02:35 1020 30.12 849 25.07 21.8 71.2 37 6.6 43.9
02:40 1020 30.12 849 25.07 21.8 71.2 36 6.3 43.4
02:45 1020 30.12 849 25.07 21.8 71.2 36 6.3 43.3
02:50 1020 30.12 849 25.07 21.8 71.3 36 6.5 43.6
02:55 1020 30.12 849 25.07 21.8 71.2 36 6 42.9
03:00 1020 30.12 850 25.1 21.9 71.5 35 6.1 43
03:05 1020 30.12 849 25.07 22.1 71.7 35 6.1 43
03:10 1020 30.12 849 25.07 22 71.6 35 5.9 42.6
03:15 1020 30.12 849 25.07 22 71.6 35 6.2 43.1
03:20 1020 30.12 850 25.1 21.9 71.4 36 6.2 43.2
03:25 1020 30.12 849 25.07 21.8 71.3 36 6.1 43.1
03:30 1020 30.12 849 25.07 21.7 71 37 6.4 43.5
03:35 1020 30.12 849 25.07 21.6 70.9 36 6.2 43.1
03:40 1020 30.12 849 25.07 21.8 71.2 36 6.4 43.5
03:45 1020 30.12 849 25.07 21.7 71 37 6.4 43.5
03:50 1020 30.12 849 25.07 21.5 70.8 37 6.3 43.3
03:55 1020 30.12 849 25.07 21.6 70.8 36 6 42.9
04:00 1020 30.12 849 25.07 21.8 71.2 35 5.9 42.6
04:05 1020 30.12 849 25.07 21.9 71.4 35 6 42.8
04:10 1020 30.12 849 25.07 21.9 71.4 35 6 42.9
04:15 1020 30.12 849 25.07 21.9 71.5 35 5.9 42.6
04:20 1020 30.12 849 25.07 22.1 71.8 34 5.9 42.6
04:25 1020 30.12 849 25.07 22.2 71.9 34 5.8 42.4
04:30 1020 30.12 849 25.07 22.3 72.1 34 5.8 42.4
04:35 1020 30.12 849 25.07 22.3 72.1 34 5.9 42.7
04:40 1020 30.12 849 25.07 22.2 72 34 5.8 42.5
04:45 1020 30.12 849 25.07 22.3 72.1 33 5.4 41.7
04:50 1020 30.12 849 25.07 22.6 72.6 33 5.7 42.3
04:55 1020 30.12 849 25.07 22.4 72.3 34 6.1 43
05:00 1020 30.12 849 25.07 22.1 71.7 34 5.8 42.5
05:05 1020 30.12 849 25.07 22.1 71.8 35 5.9 42.7
05:10 1020 30.12 849 25.07 21.9 71.5 36 6.3 43.4
05:15 1020 30.12 849 25.07 21.4 70.5 38 6.7 44
05:20 1020 30.12 850 25.1 21.1 70 38 6.4 43.6
05:25 1020 30.12 850 25.1 21.1 70 38 6.3 43.3
05:30 1020 30.12 850 25.1 21.2 70.2 37 6.3 43.3
05:35 1020 30.12 850 25.1 21.2 70.2 37 6.2 43.2
05:40 1020 30.12 850 25.1 21.3 70.3 38 6.7 44
05:45 1020 30.12 850 25.1 21 69.8 39 6.5 43.8
05:50 1020 30.12 850 25.1 20.9 69.5 39 6.6 43.8
05:55 1020 30.12 850 25.1 21 69.9 42 7.9 46.3
06:00 1020 30.12 850 25.1 20.6 69.1 41 6.9 44.5
06:05 1020 30.12 850 25.1 20.4 68.7 42 7.2 44.9
06:10 1020 30.12 850 25.1 20.2 68.4 42 6.9 44.4
06:15 1020 30.12 850 25.1 20.5 68.8 41 7 44.5
06:20 1020 30.12 850 25.1 20.3 68.5 42 7.2 45
06:25 1020 30.12 850 25.1 20.5 68.8 43 7.5 45.4
06:30 1020 30.12 849 25.07 20.5 69 41 6.9 44.5
06:35 1020 30.12 849 25.07 20.8 69.5 42 7.5 45.5
06:40 1020 30.12 849 25.07 20.5 68.9 45 8.4 47
06:45 1020 30.12 849 25.07 20.1 68.3 44 7.8 46
06:50 1020 30.12 849 25.07 20.2 68.3 47 8.5 47.4
06:55 1020 30.12 849 25.07 20.5 68.9 44 8 46.3
07:00 1020 30.12 849 25.07 20.8 69.4 44 8.3 46.9
07:05 1020 30.12 849 25.07 20.8 69.4 45 8.6 47.4
07:10 1020 30.12 849 25.07 20.9 69.7 42 7.8 46.1
07:15 1020 30.12 849 25.07 21.1 69.9 46 9.1 48.4
07:20 1020 30.12 849 25.07 21.1 70.1 45 9 48.2
07:25 1020 30.12 849 25.07 21.3 70.3 48 10.1 50.1
07:30 1020 30.12 849 25.07 21.6 70.8 43 8.7 47.7
07:35 1020 30.12 849 25.07 22.1 71.8 40 8 46.5
07:40 1020 30.12 849 25.07 22.7 72.9 39 8.2 46.7
07:45 1020 30.12 849 25.07 23 73.4 38 8 46.4
07:50 1020 30.12 849 25.07 23.3 73.9 39 8.6 47.4
07:55 1020 30.12 849 25.07 23.6 74.4 38 8.5 47.3
08:00 1020 30.12 849 25.07 23.9 75 37 8.4 47.1
08:05 1020 30.12 849 25.07 24.5 76 37 9 48.2
08:10 1020 30.12 849 25.07 24.4 76 37 9.1 48.5
08:15 1020 30.12 849 25.07 24.6 76.2 37 9 48.2
08:20 1020 30.12 849 25.07 25 77.1 38 9.9 49.8
08:25 1020 30.12 849 25.07 25.1 77.3 36 9.1 48.4
08:30 1020 30.12 849 25.07 24.2 75.5 39 9.6 49.3
08:35 1020 30.12 849 25.07 23.7 74.7 40 9.5 49.1
08:40 1020 30.12 849 25.07 23.7 74.6 41 9.9 49.9
08:45 1020 30.12 849 25.07 23.8 74.8 37 8.4 47
08:50 1020 30.12 849 25.07 23.7 74.7 38 8.9 48.1
08:55 1020 30.12 849 25.07 23.9 75.1 36 8.3 47
09:00 1020 30.12 849 25.07 24 75.3 39 9.3 48.7
09:05 1020 30.12 849 25.07 25.2 77.3 37 9.8 49.7
09:10 1020 30.12 849 25.07 25.9 78.7 33 8.8 47.8
09:15 1020 30.12 849 25.07 26.4 79.4 39 11.5 52.7
09:20 1019 30.09 849 25.07 26.3 79.3 37 10.8 51.4
09:25 1019 30.09 849 25.07 26.4 79.6 35 9.9 49.8
09:30 1019 30.09 849 25.07 27 80.6 35 10.5 51
09:35 1019 30.09 849 25.07 27.7 81.9 32 9.6 49.4
09:40 1019 30.09 848 25.04 28.3 83 30 9.6 49.3
09:45 1019 30.09 848 25.04 28.4 83.1 32 10.5 51
09:50 1019 30.09 848 25.04 28.8 83.8 30 9.9 49.9
09:55 1019 30.09 848 25.04 29.2 84.6 30 10.4 50.6
10:00 1019 30.09 848 25.04 29 84.2 29 9.2 48.6
10:05 1019 30.09 848 25.04 28.7 83.7 28 8.8 47.9
10:10 1019 30.09 848 25.04 29.2 84.6 27 8.4 47.2
10:15 1019 30.09 848 25.04 29.6 85.3 24 7.5 45.6
10:20 1019 30.09 848 25.04 29.4 84.9 27 9 48.2
10:25 1019 30.09 848 25.04 28.8 83.8 31 10.3 50.5
10:30 1019 30.09 848 25.04 28.3 82.9 31 9.7 49.4
10:35 1019 30.09 848 25.04 28.1 82.5 32 10.2 50.3
10:40 1019 30.09 848 25.04 28.5 83.3 32 10.3 50.6
10:45 1019 30.09 848 25.04 28.5 83.4 31 9.9 49.8
10:50 1019 30.09 848 25.04 28.5 83.3 31 9.9 49.8
10:55 1019 30.09 848 25.04 29 84.1 30 9.7 49.5
11:00 1019 30.09 848 25.04 29 84.2 29 9.5 49.1
11:05 1019 30.09 848 25.04 29.3 84.8 28 9.3 48.7
11:10 1019 30.09 848 25.04 29.4 84.9 28 9.4 49
11:15 1019 30.09 848 25.04 29.4 84.8 28 9.5 49
11:20 1019 30.09 848 25.04 29.6 85.3 27 9.1 48.4
11:25 1019 30.09 848 25.04 29.6 85.3 28 9.6 49.3
11:30 1019 30.09 848 25.04 29.4 85 30 10.5 51
11:35 1019 30.09 848 25.04 29.2 84.6 31 10.5 50.8
11:40 1019 30.09 848 25.04 29.6 85.2 31 10.8 51.5
11:45 1019 30.09 848 25.04 29.9 85.8 29 10.4 50.7
11:50 1019 30.09 848 25.04 30.6 87 27 10 50
11:55 1019 30.09 848 25.04 30.9 87.7 27 9.8 49.7
12:00 1019 30.09 848 25.04 30.9 87.7 27 10.3 50.6
12:05 1019 30.09 848 25.04 31.1 87.9 27 10.2 50.4
12:10 1019 30.09 848 25.04 31.2 88.1 27 10.1 50.2
12:15 1019 30.09 848 25.04 31.3 88.3 26 10.1 50.2
12:20 1019 30.09 848 25.04 32.7 90.8 24 10.1 50.2
12:25 1019 30.09 848 25.04 32.1 89.8 27 11 51.8
12:30 1019 30.09 848 25.04 32.2 89.9 26 10.6 51
12:35 1019 30.09 848 25.04 32.7 90.9 28 12 53.6
12:40 1019 30.09 848 25.04 31.8 89.3 29 12 53.6
12:45 1019 30.09 848 25.04 30.6 87.1 31 11.9 53.4
12:50 1019 30.09 848 25.04 30.7 87.2 30 11.5 52.8
12:55 1019 30.09 848 25.04 31 87.8 31 12.4 54.4
13:00 1019 30.09 848 25.04 31.4 88.6 27 10.3 50.5
13:05 1018 30.06 848 25.04 32.1 89.8 28 11.5 52.8
13:10 1018 30.06 848 25.04 32.7 90.8 26 10.8 51.4
13:15 1018 30.06 847 25.01 33.1 91.6 25 11 51.8
13:20 1018 30.06 847 25.01 33.6 92.4 23 9.8 49.7
13:25 1018 30.06 847 25.01 34.2 93.5 22 9.7 49.5
13:30 1018 30.06 847 25.01 33.9 93.1 24 11.1 52
13:35 1018 30.06 847 25.01 33.7 92.6 25 11.4 52.5
13:40 1018 30.06 847 25.01 33.6 92.4 26 12.1 53.8
13:45 1018 30.06 847 25.01 33.1 91.6 29 12.9 55.3
13:50 1018 30.06 847 25.01 33.3 91.9 25 10.7 51.3
13:55 1018 30.06 847 25.01 33.8 92.8 23 10.2 50.4
14:00 1018 30.06 847 25.01 34.3 93.7 21 9.5 49.2
14:05 1018 30.06 847 25.01 35 94.9 21 10 50
14:10 1018 30.06 847 25.01 34.9 94.9 21 9.6 49.3
14:15 1018 30.06 847 25.01 35.8 96.5 20 9.8 49.7
14:20 1017 30.03 847 25.01 35.8 96.4 20 9.8 49.6
14:25 1017 30.03 847 25.01 34.9 94.7 21 9.8 49.7
14:30 1017 30.03 846 24.98 35.1 95.2 21 9.6 49.3
14:35 1017 30.03 846 24.98 35.7 96.2 20 9.6 49.3
14:40 1017 30.03 846 24.98 35 95.1 21 10.1 50.2
14:45 1017 30.03 846 24.98 35.3 95.6 20 9.3 48.7
14:50 1017 30.03 846 24.98 35.6 96 20 9.8 49.6
14:55 1017 30.03 846 24.98 35.5 96 20 9.7 49.5
15:00 1017 30.03 846 24.98 35.8 96.4 21 10.3 50.6
15:05 1017 30.03 846 24.98 36.3 97.3 19 9.7 49.4
15:10 1017 30.03 846 24.98 36.1 96.9 20 10.3 50.5
15:15 1017 30.03 846 24.98 36.2 97.1 20 10.2 50.4
15:20 1017 30.03 846 24.98 35.8 96.4 21 10.3 50.5
15:25 1017 30.03 846 24.98 34.8 94.7 22 10.6 51
15:30 1017 30.03 846 24.98 34.1 93.4 25 11.5 52.7
15:35 1017 30.03 846 24.98 32.7 90.8 27 11.7 53.1
15:40 1017 30.03 846 24.98 31 87.7 28 10.5 50.8
15:45 1017 30.03 846 24.98 30.8 87.4 27 9.9 49.7
15:50 1017 30.03 846 24.98 31 87.8 25 8.7 47.7
15:55 1017 30.03 846 24.98 30.7 87.3 23 7.5 45.5
16:00 1017 30.03 846 24.98 30.2 86.4 23 7.3 45.1
16:05 1017 30.03 846 24.98 29.9 85.8 23 7.2 44.9
16:10 1017 30.03 846 24.98 29.5 85.1 24 7 44.6
16:15 1017 30.03 846 24.98 29.4 85 23 6.4 43.5
16:20 1017 30.03 846 24.98 29.8 85.6 22 6.1 43
16:25 1017 30.03 846 24.98 29.9 85.8 22 6.1 43
16:30 1017 30.03 846 24.98 30.4 86.6 22 6.6 43.8
16:35 1017 30.03 846 24.98 30.5 87 21 6 42.9
16:40 1017 30.03 846 24.98 30.6 87.1 21 6 42.8
16:45 1017 30.03 846 24.98 30.7 87.2 22 6.7 44
16:50 1017 30.03 847 25.01 30.6 87.1 23 7.8 46
16:55 1018 30.06 847 25.01 29.9 85.8 26 8.6 47.5
17:00 1018 30.06 847 25.01 29.5 85.2 27 8.8 47.9
17:05 1018 30.06 847 25.01 29 84.2 30 10.1 50.1
17:10 1018 30.06 847 25.01 28.6 83.5 31 10.2 50.4
17:15 1018 30.06 847 25.01 28.5 83.2 30 9.6 49.4
17:20 1018 30.06 847 25.01 28.3 83 30 9.5 49.1
17:25 1018 30.06 847 25.01 28.3 82.9 30 9.1 48.5
17:30 1018 30.06 847 25.01 28.3 83 32 10.3 50.6
17:35 1018 30.06 847 25.01 28 82.4 31 9.6 49.2
17:40 1018 30.06 847 25.01 27.7 81.9 32 9.7 49.5
17:45 1018 30.06 847 25.01 27.5 81.6 33 10 50
17:50 1018 30.06 847 25.01 27.3 81.1 34 10.2 50.4
17:55 1018 30.06 848 25.04 27.3 81.2 35 10.8 51.5
18:00 1019 30.09 848 25.04 27.3 81.1 40 12.6 54.7
18:05 1019 30.09 848 25.04 26.5 79.8 44 13.4 56.1
18:10 1019 30.09 848 25.04 25.8 78.4 53 15.6 60.1
18:15 1018 30.06 847 25.01 25.1 77.2 55 15.6 60
18:20 1018 30.06 847 25.01 25.2 77.4 45 12.6 54.7
18:25 1018 30.06 847 25.01 25.8 78.5 51 15.2 59.4
18:30 1017 30.03 846 24.98 25.9 78.5 39 11.2 52.2
18:35 1017 30.03 846 24.98 26.5 79.8 38 11.1 52
18:40 1017 30.03 846 24.98 26.8 80.2 40 12.2 54
18:45 1017 30.03 846 24.98 26.4 79.5 45 13.6 56.5
18:50 1017 30.03 846 24.98 25.5 77.8 48 13.9 57.1
18:55 1017 30.03 846 24.98 25 77 48 13.4 56.1
19:00 1017 30.03 846 24.98 24.9 76.9 44 12.1 53.8
19:05 1017 30.03 846 24.98 25.2 77.3 43 12 53.5
19:10 1016 30 845 24.95 25.1 77.2 40 10.8 51.4
19:15 1016 30 845 24.95 25.3 77.5 47 13.4 56.2
19:20 1016 30 845 24.95 24.9 76.8 45 12.4 54.3
19:25 1017 30.03 846 24.98 25.5 77.8 39 10.6 51.1
19:30 1017 30.03 846 24.98 25.9 78.7 45 13.3 55.9
19:35 1017 30.03 846 24.98 26 78.7 47 14 57.3
19:40 1017 30.03 846 24.98 26 78.8 44 13 55.4
19:45 1016 30 846 24.98 26.2 79.1 40 11.8 53.2
19:50 1016 30 845 24.95 26.4 79.5 42 12.6 54.7
19:55 1016 30 846 24.98 26.9 80.4 41 12.9 55.3
20:00 1017 30.03 846 24.98 27.4 81.3 41 13.3 56
20:05 1017 30.03 846 24.98 27.2 80.9 44 14.2 57.6
20:10 1017 30.03 846 24.98 26.6 79.9 51 15.9 60.6
20:15 1017 30.03 846 24.98 25.6 78.1 49 14.4 58
20:20 1017 30.03 846 24.98 25.2 77.3 51 14.4 57.9
20:25 1017 30.03 846 24.98 25.3 77.5 50 14.2 57.5
20:30 1017 30.03 846 24.98 25.4 77.6 49 14.1 57.3
20:35 1017 30.03 846 24.98 25.5 77.8 46 13.3 56
20:40 1017 30.03 846 24.98 25.6 78.1 49 14.3 57.8
20:45 1017 30.03 846 24.98 25.3 77.5 50 14.4 58
20:50 1017 30.03 846 24.98 24.9 76.8 51 14.1 57.5
20:55 1018 30.06 847 25.01 24.8 76.7 52 14.4 57.9
21:00 1018 30.06 847 25.01 24.6 76.4 52 14.2 57.5
21:05 1018 30.06 847 25.01 24.2 75.5 51 13.6 56.5
21:10 1018 30.06 847 25.01 24.2 75.5 51 13.6 56.5
21:15 1018 30.06 847 25.01 24.1 75.3 53 13.9 57.1
21:20 1018 30.06 848 25.04 23.6 74.5 53 13.7 56.7
21:25 1019 30.09 848 25.04 23.7 74.6 52 13.4 56.2
21:30 1018 30.06 848 25.04 23.6 74.4 58 15.1 59.1
21:35 1018 30.06 848 25.04 23.1 73.6 58 14.6 58.3
21:40 1018 30.06 848 25.04 22.7 72.9 60 14.6 58.4
21:45 1019 30.09 848 25.04 22.4 72.4 58 14 57.2
21:50 1019 30.09 848 25.04 22.5 72.6 56 13.6 56.4
21:55 1019 30.09 848 25.04 22.4 72.4 57 13.7 56.7
22:00 1019 30.09 848 25.04 22.3 72.1 57 13.6 56.5
22:05 1019 30.09 849 25.07 22.3 72.1 56 13.2 55.8
22:10 1020 30.12 849 25.07 22.2 72 55 12.9 55.3
22:15 1020 30.12 849 25.07 22.5 72.4 56 13.3 55.9
22:20 1020 30.12 849 25.07 22.4 72.3 53 12.5 54.5
22:25 1020 30.12 849 25.07 22.5 72.6 53 12.5 54.5
22:30 1020 30.12 849 25.07 22.5 72.5 52 12.4 54.3
22:35 1020 30.12 849 25.07 22.7 72.8 52 12.5 54.4
22:40 1020 30.12 849 25.07 22.5 72.5 53 12.5 54.5
22:45 1020 30.12 849 25.07 22.4 72.4 51 11.9 53.4
22:50 1020 30.12 849 25.07 22.5 72.5 50 11.6 52.9
22:55 1020 30.12 849 25.07 22.6 72.6 47 10.8 51.5
23:00 1020 30.12 850 25.1 22.8 73 47 11.1 52
23:05 1021 30.15 850 25.1 22.7 72.9 46 10.5 51
23:10 1021 30.15 850 25.1 22.7 72.9 46 10.7 51.3
23:15 1021 30.15 850 25.1 22.7 72.8 45 10.2 50.4
23:20 1021 30.15 850 25.1 22.6 72.7 46 10.5 50.9
23:25 1021 30.15 850 25.1 22.4 72.4 46 10.4 50.7
23:30 1021 30.15 850 25.1 22.2 72 46 10.2 50.3
23:35 1021 30.15 850 25.1 22.2 71.9 44 9.4 49
23:40 1021 30.15 850 25.1 22.2 72 43 9.3 48.8
23:45 1021 30.15 850 25.1 22.1 71.8 45 9.6 49.4
23:50 1021 30.15 850 25.1 22 71.6 45 9.7 49.4
23:55 1021 30.15 850 25.1 21.9 71.4 45 9.4 49
24:00 1021 30.15 850 25.1 21.7 71.1 43 8.9 48